createdAt,value
2023-01-10T00:01:47.721Z,96.30
2023-01-10T00:04:14.750Z,96.30
2023-01-10T00:06:41.865Z,96.30
2023-01-10T00:09:10.488Z,96.30
2023-01-10T00:11:55.889Z,96.50
2023-01-10T00:14:22.834Z,96.60
2023-01-10T00:16:49.953Z,96.70
2023-01-10T00:19:16.972Z,96.80
2023-01-10T00:21:43.916Z,96.90
2023-01-10T00:24:22.276Z,97.00
2023-01-10T00:26:51.878Z,97.00
2023-01-10T00:29:20.482Z,97.00
2023-01-10T00:31:47.845Z,97.00
2023-01-10T00:34:15.179Z,97.00
2023-01-10T00:36:42.238Z,97.00
2023-01-10T00:39:11.208Z,96.90
2023-01-10T00:41:58.002Z,96.80
2023-01-10T00:44:26.121Z,96.80
2023-01-10T00:46:53.743Z,96.80
2023-01-10T00:49:20.789Z,96.80
2023-01-10T00:51:47.815Z,96.80
2023-01-10T00:54:15.402Z,96.80
2023-01-10T00:56:42.380Z,96.70
2023-01-10T00:59:09.569Z,96.70
2023-01-10T01:01:36.968Z,96.50
2023-01-10T01:04:04.391Z,96.40
2023-01-10T01:06:31.332Z,96.40
2023-01-10T01:08:58.344Z,96.40
2023-01-10T01:11:26.058Z,96.40
2023-01-10T01:13:53.168Z,96.40
2023-01-10T01:16:20.275Z,96.40
2023-01-10T01:18:47.376Z,96.40
2023-01-10T01:21:14.425Z,96.60
2023-01-10T01:23:41.472Z,96.60
2023-01-10T01:26:08.644Z,96.70
2023-01-10T01:28:35.621Z,96.70
2023-01-10T01:31:08.544Z,96.70
2023-01-10T01:33:35.829Z,96.60
2023-01-10T01:36:02.886Z,96.60
2023-01-10T01:38:29.908Z,96.60
2023-01-10T01:40:56.861Z,96.60
2023-01-10T01:43:23.764Z,96.60
2023-01-10T01:45:51.042Z,96.50
2023-01-10T01:48:18.109Z,96.50
2023-01-10T01:50:59.397Z,96.50
2023-01-10T01:53:37.268Z,96.40
2023-01-10T01:56:10.179Z,96.40
2023-01-10T01:58:45.956Z,96.30
2023-01-10T02:01:15.039Z,96.30
2023-01-10T02:03:45.015Z,96.30
2023-01-10T02:06:12.571Z,96.20
2023-01-10T02:08:47.657Z,96.20
2023-01-10T02:11:14.658Z,96.20
2023-01-10T02:13:44.623Z,96.20
2023-01-10T02:16:11.977Z,96.30
2023-01-10T02:18:42.563Z,96.30
2023-01-10T02:21:44.735Z,96.30
2023-01-10T02:24:37.874Z,96.30
2023-01-10T02:27:28.057Z,96.30
2023-01-10T02:30:22.882Z,96.20
2023-01-10T02:33:09.483Z,96.20
2023-01-10T02:35:56.787Z,96.20
2023-01-10T02:38:33.107Z,96.10
2023-01-10T02:41:34.551Z,96.10
2023-01-10T02:44:31.201Z,96.20
2023-01-10T02:46:58.185Z,96.10
2023-01-10T02:49:25.142Z,96.10
2023-01-10T02:51:52.330Z,96.10
2023-01-10T02:54:23.500Z,96.00
2023-01-10T02:57:24.421Z,96.00
2023-01-10T03:00:10.285Z,96.00
2023-01-10T03:02:57.381Z,96.00
2023-01-10T03:05:47.723Z,96.10
2023-01-10T03:08:27.046Z,96.00
2023-01-10T03:10:58.418Z,95.90
2023-01-10T03:13:27.746Z,96.00
2023-01-10T03:15:57.283Z,96.10
2023-01-10T03:18:32.224Z,96.20
2023-01-10T03:21:02.723Z,96.10
2023-01-10T03:23:32.930Z,96.10
2023-01-10T03:26:00.883Z,96.00
2023-01-10T03:28:51.457Z,95.90
2023-01-10T03:31:30.738Z,95.90
2023-01-10T03:33:58.345Z,95.80
2023-01-10T03:36:49.608Z,95.80
2023-01-10T03:39:36.567Z,95.70
2023-01-10T03:42:19.064Z,95.60
2023-01-10T03:45:13.665Z,95.60
2023-01-10T03:47:47.919Z,95.50
2023-01-10T03:50:26.737Z,95.50
2023-01-10T03:52:53.751Z,95.40
2023-01-10T03:55:24.023Z,95.30
2023-01-10T03:57:51.049Z,95.20
2023-01-10T04:00:18.778Z,95.10
2023-01-10T04:02:46.146Z,95.10
2023-01-10T04:05:13.430Z,95.00
2023-01-10T04:07:40.473Z,94.90
2023-01-10T04:10:08.256Z,94.80
2023-01-10T04:12:35.286Z,94.70
2023-01-10T04:15:03.151Z,94.60
2023-01-10T04:17:30.264Z,94.50
2023-01-10T04:19:57.253Z,94.40
2023-01-10T04:22:24.261Z,94.30
2023-01-10T04:24:54.578Z,94.30
2023-01-10T04:27:21.562Z,94.20
2023-01-10T04:29:48.716Z,94.10
2023-01-10T04:32:15.927Z,94.00
2023-01-10T04:34:42.895Z,94.00
2023-01-10T04:37:09.876Z,93.90
2023-01-10T04:39:36.857Z,93.90
2023-01-10T04:42:03.931Z,93.70
2023-01-10T04:44:30.858Z,93.50
2023-01-10T04:46:57.850Z,93.40
2023-01-10T04:49:24.869Z,93.40
2023-01-10T04:51:51.941Z,93.30
2023-01-10T04:54:23.033Z,93.20
2023-01-10T04:56:50.250Z,93.10
2023-01-10T04:59:17.714Z,92.90
2023-01-10T05:01:45.229Z,92.70
2023-01-10T05:04:12.465Z,92.60
2023-01-10T05:06:40.438Z,92.60
2023-01-10T05:09:08.564Z,92.40
2023-01-10T05:11:35.605Z,92.40
2023-01-10T05:14:02.748Z,92.30
2023-01-10T05:16:29.813Z,92.20
2023-01-10T05:18:56.828Z,92.10
2023-01-10T05:21:23.812Z,92.10
2023-01-10T05:23:50.857Z,92.10
2023-01-10T05:26:21.267Z,92.00
2023-01-10T05:28:48.688Z,91.90
2023-01-10T05:31:18.866Z,92.00
2023-01-10T05:33:47.757Z,91.90
2023-01-10T05:36:14.810Z,91.90
2023-01-10T05:38:41.861Z,91.80
2023-01-10T05:41:09.279Z,91.80
2023-01-10T05:43:36.530Z,91.60
2023-01-10T05:46:03.944Z,91.40
2023-01-10T05:48:30.967Z,91.20
2023-01-10T05:50:58.006Z,91.00
2023-01-10T05:53:25.117Z,90.80
2023-01-10T05:55:56.232Z,90.70
2023-01-10T05:58:24.158Z,90.50
2023-01-10T06:00:51.735Z,90.30
2023-01-10T06:03:19.101Z,90.20
2023-01-10T06:05:48.671Z,90.10
2023-01-10T06:08:16.421Z,90.00
2023-01-10T06:10:43.871Z,90.00
2023-01-10T06:13:12.270Z,89.90
2023-01-10T06:15:39.779Z,89.90
2023-01-10T06:18:07.608Z,89.80
2023-01-10T06:20:34.784Z,89.70
2023-01-10T06:23:04.771Z,89.70
2023-01-10T06:25:33.798Z,89.60
2023-01-10T06:28:00.755Z,89.40
2023-01-10T06:30:27.855Z,89.20
2023-01-10T06:33:00.163Z,89.00
2023-01-10T06:35:27.101Z,88.80
2023-01-10T06:37:54.123Z,88.70
2023-01-10T06:40:21.152Z,88.50
2023-01-10T06:42:48.138Z,88.50
2023-01-10T06:45:15.167Z,88.40
2023-01-10T06:47:42.498Z,88.40
2023-01-10T06:50:10.589Z,88.40
2023-01-10T06:52:38.068Z,88.50
2023-01-10T06:55:05.998Z,88.40
2023-01-10T06:57:35.660Z,88.50
2023-01-10T07:00:08.990Z,88.70
2023-01-10T07:02:36.824Z,88.40
2023-01-10T07:05:03.921Z,88.20
2023-01-10T07:07:30.932Z,88.00
2023-01-10T07:09:59.756Z,87.60
2023-01-10T07:12:26.750Z,87.30
2023-01-10T07:14:53.777Z,86.80
2023-01-10T07:17:21.124Z,86.60
2023-01-10T07:19:48.167Z,86.40
2023-01-10T07:22:15.193Z,86.10
2023-01-10T07:24:42.167Z,85.80
2023-01-10T07:27:09.133Z,85.70
2023-01-10T07:29:36.095Z,85.40
2023-01-10T07:32:03.245Z,85.30
2023-01-10T07:34:30.226Z,85.10
2023-01-10T07:36:57.283Z,85.00
2023-01-10T07:39:24.212Z,84.90
2023-01-10T07:41:52.807Z,84.70
2023-01-10T07:44:21.518Z,84.30
2023-01-10T07:46:48.557Z,83.90
2023-01-10T07:49:15.660Z,83.70
2023-01-10T07:51:42.591Z,83.40
2023-01-10T07:54:09.625Z,83.00
2023-01-10T07:56:36.617Z,82.90
2023-01-10T07:59:03.540Z,82.80
2023-01-10T08:01:30.565Z,82.60
2023-01-10T08:03:58.824Z,82.20
2023-01-10T08:06:26.198Z,82.10
2023-01-10T08:08:53.261Z,81.80
2023-01-10T08:11:20.224Z,81.40
2023-01-10T08:13:47.253Z,81.40
2023-01-10T08:16:15.629Z,80.70
2023-01-10T08:18:43.381Z,80.10
2023-01-10T08:21:10.617Z,80.00
2023-01-10T08:23:37.874Z,80.00
2023-01-10T08:26:05.937Z,79.80
2023-01-10T08:28:33.326Z,79.60
2023-01-10T08:31:06.273Z,79.30
2023-01-10T08:33:33.416Z,79.10
2023-01-10T08:36:00.428Z,79.00
2023-01-10T08:38:27.405Z,78.70
2023-01-10T08:40:58.253Z,78.60
2023-01-10T08:43:25.271Z,78.40
2023-01-10T08:45:52.273Z,78.40
2023-01-10T08:48:19.330Z,77.60
2023-01-10T08:50:46.317Z,77.50
2023-01-10T08:53:13.911Z,77.10
2023-01-10T08:55:41.009Z,77.20
2023-01-10T08:58:09.397Z,77.30
2023-01-10T09:00:36.419Z,76.60
2023-01-10T09:03:05.801Z,76.00
2023-01-10T09:05:32.865Z,75.50
2023-01-10T09:08:03.276Z,75.30
2023-01-10T09:10:30.694Z,74.80
2023-01-10T09:13:01.580Z,74.20
2023-01-10T09:15:34.148Z,73.50
2023-01-10T09:18:04.774Z,73.60
2023-01-10T09:20:33.574Z,73.50
2023-01-10T09:23:06.514Z,72.90
2023-01-10T09:25:34.167Z,72.50
2023-01-10T09:28:03.207Z,72.80
2023-01-10T09:30:31.100Z,72.80
2023-01-10T09:32:58.963Z,72.40
2023-01-10T09:35:27.333Z,72.10
2023-01-10T09:37:55.981Z,71.00
2023-01-10T09:40:51.349Z,71.30
2023-01-10T09:43:33.059Z,71.70
2023-01-10T09:46:12.513Z,71.60
2023-01-10T09:49:07.324Z,70.70
2023-01-10T09:51:41.030Z,70.40
2023-01-10T09:54:41.525Z,69.70
2023-01-10T09:57:18.778Z,70.00
2023-01-10T09:59:51.048Z,70.30
2023-01-10T10:02:21.013Z,70.40
2023-01-10T10:05:11.554Z,70.10
2023-01-10T10:07:38.756Z,70.40
2023-01-10T10:10:07.607Z,70.60
2023-01-10T10:12:37.613Z,70.10
2023-01-10T10:15:22.762Z,69.60
2023-01-10T10:17:53.479Z,68.90
2023-01-10T10:20:31.555Z,68.50
2023-01-10T10:23:20.022Z,67.90
2023-01-10T10:26:17.445Z,68.50
2023-01-10T10:28:54.983Z,68.50
2023-01-10T10:31:22.306Z,68.20
2023-01-10T10:34:11.913Z,68.40
2023-01-10T10:36:51.593Z,68.10
2023-01-10T10:39:23.875Z,67.20
2023-01-10T10:41:53.813Z,67.50
2023-01-10T10:44:44.966Z,67.80
2023-01-10T10:47:18.074Z,68.30
2023-01-10T10:50:02.048Z,68.90
2023-01-10T10:52:35.331Z,68.90
2023-01-10T10:55:05.075Z,67.70
2023-01-10T10:57:38.578Z,67.90
2023-01-10T11:00:09.127Z,67.40
2023-01-10T11:02:43.523Z,67.80
2023-01-10T11:05:18.438Z,68.20
2023-01-10T11:07:45.711Z,67.60
2023-01-10T11:10:20.909Z,67.80
2023-01-10T11:12:51.215Z,67.90
2023-01-10T11:15:39.121Z,66.20
2023-01-10T11:18:12.695Z,65.80
2023-01-10T11:20:49.065Z,66.10
2023-01-10T11:23:34.293Z,65.40
2023-01-10T11:26:01.566Z,65.30
2023-01-10T11:28:33.769Z,65.10
2023-01-10T11:31:02.247Z,64.30
2023-01-10T11:33:40.088Z,64.30
2023-01-10T11:36:13.194Z,64.20
2023-01-10T11:38:40.306Z,64.20
2023-01-10T11:41:25.289Z,63.70
2023-01-10T11:43:52.267Z,64.00
2023-01-10T11:46:25.802Z,63.70
2023-01-10T11:49:08.061Z,62.60
2023-01-10T11:51:48.665Z,63.30
2023-01-10T11:54:34.289Z,63.70
2023-01-10T11:57:21.323Z,62.60
2023-01-10T12:00:03.507Z,61.70
2023-01-10T12:02:44.674Z,61.10
2023-01-10T12:05:22.066Z,61.00
2023-01-10T12:07:57.882Z,59.20
2023-01-10T12:10:27.764Z,59.80
2023-01-10T12:13:00.160Z,60.40
2023-01-10T12:15:30.220Z,59.10
2023-01-10T12:18:02.359Z,59.70
2023-01-10T12:20:32.819Z,60.40
2023-01-10T12:23:11.342Z,60.70
2023-01-10T12:25:41.677Z,60.00
2023-01-10T12:28:25.469Z,59.50
2023-01-10T12:30:55.681Z,59.00
2023-01-10T12:33:28.709Z,58.60
2023-01-10T12:36:19.253Z,58.60
2023-01-10T12:39:03.866Z,58.50
2023-01-10T12:42:01.165Z,58.50
2023-01-10T12:44:43.675Z,59.20
2023-01-10T12:47:30.720Z,59.70
2023-01-10T12:50:02.468Z,59.90
2023-01-10T12:52:52.656Z,60.00
2023-01-10T12:55:22.687Z,59.60
2023-01-10T12:57:54.005Z,59.00
2023-01-10T13:00:37.658Z,58.60
2023-01-10T13:03:19.433Z,57.10
2023-01-10T13:05:49.685Z,55.40
2023-01-10T13:08:21.115Z,56.50
2023-01-10T13:10:51.468Z,57.30
2023-01-10T13:13:40.385Z,57.80
2023-01-10T13:16:13.065Z,57.80
2023-01-10T13:19:02.886Z,57.50
2023-01-10T13:21:32.628Z,57.30
2023-01-10T13:24:04.458Z,57.80
2023-01-10T13:26:53.887Z,57.40
2023-01-10T13:29:38.823Z,57.20
2023-01-10T13:32:30.509Z,57.50
2023-01-10T13:35:11.277Z,58.40
2023-01-10T13:37:40.387Z,58.00
2023-01-10T13:40:07.985Z,58.20
2023-01-10T13:42:54.836Z,57.50
2023-01-10T13:45:23.329Z,57.10
2023-01-10T13:47:57.033Z,57.30
2023-01-10T13:50:24.481Z,57.50
2023-01-10T13:53:15.437Z,57.50
2023-01-10T13:55:49.896Z,57.10
2023-01-10T13:58:16.869Z,57.60
2023-01-10T14:01:11.436Z,58.10
2023-01-10T14:03:52.506Z,58.10
2023-01-10T14:06:28.756Z,58.30
2023-01-10T14:09:01.890Z,58.40
2023-01-10T14:11:44.028Z,58.50
2023-01-10T14:14:22.385Z,58.60
2023-01-10T14:16:55.293Z,58.90
2023-01-10T14:19:32.257Z,58.90
2023-01-10T14:22:01.752Z,59.00
2023-01-10T14:24:43.939Z,58.90
2023-01-10T14:27:17.190Z,58.10
2023-01-10T14:30:05.983Z,58.70
2023-01-10T14:32:41.447Z,59.90
2023-01-10T14:35:15.199Z,60.60
2023-01-10T14:37:53.134Z,61.10
2023-01-10T14:40:28.707Z,61.90
2023-01-10T14:42:58.604Z,62.50
2023-01-10T14:45:51.793Z,63.10
2023-01-10T14:49:00.882Z,63.60
2023-01-10T14:51:29.320Z,63.80
2023-01-10T14:54:24.142Z,63.70
2023-01-10T14:56:53.132Z,63.80
2023-01-10T14:59:32.052Z,63.40
2023-01-10T15:02:02.092Z,62.20
2023-01-10T15:04:33.983Z,62.20
2023-01-10T15:07:10.281Z,62.50
2023-01-10T15:09:38.108Z,62.70
2023-01-10T15:12:08.246Z,62.10
2023-01-10T15:14:37.591Z,62.00
2023-01-10T15:17:06.720Z,62.70
2023-01-10T15:19:36.842Z,63.40
2023-01-10T15:22:15.900Z,63.50
2023-01-10T15:24:43.003Z,62.20
2023-01-10T15:27:15.175Z,62.80
2023-01-10T15:29:47.136Z,63.40
2023-01-10T15:32:35.721Z,63.80
2023-01-10T15:35:03.239Z,64.30
2023-01-10T15:37:36.578Z,64.60
2023-01-10T15:40:06.949Z,65.00
2023-01-10T15:42:35.444Z,65.50
2023-01-10T15:45:29.199Z,66.00
2023-01-10T15:48:03.235Z,66.60
2023-01-10T15:50:38.715Z,66.80
2023-01-10T15:53:11.154Z,67.00
2023-01-10T15:55:44.197Z,67.40
2023-01-10T15:58:22.487Z,67.80
2023-01-10T16:00:52.377Z,68.30
2023-01-10T16:03:45.137Z,68.60
2023-01-10T16:06:21.861Z,69.00
2023-01-10T16:08:52.497Z,69.30
2023-01-10T16:12:00.681Z,69.60
2023-01-10T16:14:27.801Z,70.10
2023-01-10T16:16:54.851Z,70.20
2023-01-10T16:19:22.297Z,70.50
2023-01-10T16:21:57.725Z,70.80
2023-01-10T16:24:28.778Z,71.10
2023-01-10T16:26:57.113Z,71.30
2023-01-10T16:29:24.530Z,71.40
2023-01-10T16:31:55.437Z,71.70
2023-01-10T16:34:22.570Z,72.00
2023-01-10T16:36:49.645Z,72.20
2023-01-10T16:39:18.826Z,72.40
2023-01-10T16:42:05.115Z,72.60
2023-01-10T16:44:33.178Z,72.70
2023-01-10T16:47:00.924Z,72.70
2023-01-10T16:49:28.128Z,72.70
2023-01-10T16:51:57.452Z,73.30
2023-01-10T16:54:28.445Z,72.70
2023-01-10T16:56:55.960Z,72.60
2023-01-10T16:59:23.070Z,72.60
2023-01-10T17:01:51.348Z,72.60
2023-01-10T17:04:35.603Z,72.60
2023-01-10T17:07:02.671Z,72.50
2023-01-10T17:09:30.870Z,72.50
2023-01-10T17:12:13.727Z,72.50
2023-01-10T17:14:40.696Z,72.60
2023-01-10T17:17:07.712Z,72.60
2023-01-10T17:19:34.784Z,72.50
2023-01-10T17:22:01.775Z,72.40
2023-01-10T17:24:29.965Z,72.20
2023-01-10T17:26:57.019Z,72.10
2023-01-10T17:29:23.964Z,72.10
2023-01-10T17:31:51.103Z,71.80
2023-01-10T17:34:18.211Z,71.80
2023-01-10T17:36:45.186Z,71.70
2023-01-10T17:39:12.329Z,71.60
2023-01-10T17:41:39.307Z,71.50
2023-01-10T17:44:06.262Z,71.30
2023-01-10T17:46:33.294Z,71.30
2023-01-10T17:49:02.398Z,71.40
2023-01-10T17:51:29.487Z,71.40
2023-01-10T17:53:56.698Z,71.50
2023-01-10T17:56:24.582Z,71.40
2023-01-10T17:58:52.952Z,71.40
2023-01-10T18:01:25.426Z,71.60
2023-01-10T18:03:52.962Z,71.70
2023-01-10T18:06:25.110Z,71.90
2023-01-10T18:08:53.088Z,72.00
2023-01-10T18:11:20.504Z,72.70
2023-01-10T18:13:47.466Z,72.20
2023-01-10T18:16:14.549Z,72.20
2023-01-10T18:18:41.535Z,72.00
2023-01-10T18:21:16.762Z,71.90
2023-01-10T18:23:44.202Z,71.70
2023-01-10T18:26:12.641Z,71.70
2023-01-10T18:28:42.905Z,71.50
2023-01-10T18:31:13.671Z,71.30
2023-01-10T18:33:40.891Z,71.20
2023-01-10T18:36:14.375Z,71.30
2023-01-10T18:38:41.807Z,71.80
2023-01-10T18:41:09.038Z,70.80
2023-01-10T18:43:36.046Z,70.70
2023-01-10T18:46:09.677Z,70.50
2023-01-10T18:48:37.228Z,70.40
2023-01-10T18:51:05.153Z,70.40
2023-01-10T18:53:32.824Z,70.60
2023-01-10T18:56:02.602Z,70.60
2023-01-10T18:58:38.418Z,70.70
2023-01-10T19:01:16.409Z,70.80
2023-01-10T19:03:45.555Z,70.90
2023-01-10T19:06:16.606Z,71.00
2023-01-10T19:08:45.911Z,71.00
2023-01-10T19:11:15.829Z,71.00
2023-01-10T19:13:44.601Z,71.00
2023-01-10T19:16:22.107Z,70.80
2023-01-10T19:19:11.173Z,70.60
2023-01-10T19:21:39.134Z,70.20
2023-01-10T19:24:10.859Z,70.00
2023-01-10T19:26:39.319Z,70.00
2023-01-10T19:29:06.321Z,69.80
2023-01-10T19:31:33.375Z,69.80
2023-01-10T19:34:01.237Z,69.90
2023-01-10T19:36:29.001Z,69.90
2023-01-10T19:38:58.561Z,70.00
2023-01-10T19:41:27.474Z,70.50
2023-01-10T19:44:00.256Z,69.60
2023-01-10T19:46:31.623Z,69.50
2023-01-10T19:49:03.334Z,69.40
2023-01-10T19:51:30.485Z,69.40
2023-01-10T19:53:57.712Z,69.40
2023-01-10T19:56:24.781Z,69.30
2023-01-10T19:58:53.701Z,69.20
2023-01-10T20:01:29.414Z,69.10
2023-01-10T20:03:58.795Z,68.90
2023-01-10T20:06:27.562Z,68.80
2023-01-10T20:08:55.089Z,69.00
2023-01-10T20:11:24.838Z,69.10
2023-01-10T20:13:52.340Z,69.10
2023-01-10T20:16:22.831Z,69.10
2023-01-10T20:18:51.481Z,69.10
2023-01-10T20:21:19.193Z,69.00
2023-01-10T20:23:46.874Z,68.80
2023-01-10T20:26:20.750Z,68.70
2023-01-10T20:28:48.741Z,68.70
2023-01-10T20:31:18.104Z,68.70
2023-01-10T20:33:45.231Z,68.60
2023-01-10T20:36:15.302Z,68.60
2023-01-10T20:38:42.547Z,68.70
2023-01-10T20:41:19.057Z,68.80
2023-01-10T20:43:46.487Z,69.10
2023-01-10T20:46:17.007Z,69.40
2023-01-10T20:48:45.071Z,69.80
2023-01-10T20:51:14.510Z,70.00
2023-01-10T20:53:41.822Z,69.90
2023-01-10T20:56:13.253Z,69.70
2023-01-10T20:58:40.512Z,69.30
2023-01-10T21:01:08.993Z,69.10
2023-01-10T21:03:36.220Z,68.80
2023-01-10T21:06:03.716Z,68.20
2023-01-10T21:08:30.816Z,67.80
2023-01-10T21:10:58.263Z,67.60
2023-01-10T21:13:25.594Z,67.40
2023-01-10T21:15:55.392Z,67.10
2023-01-10T21:18:24.861Z,67.00
2023-01-10T21:20:54.748Z,67.10
2023-01-10T21:23:24.243Z,66.60
2023-01-10T21:25:53.167Z,66.70
2023-01-10T21:28:21.189Z,66.60
2023-01-10T21:30:48.267Z,66.30
2023-01-10T21:33:15.351Z,66.10
2023-01-10T21:35:42.339Z,65.90
2023-01-10T21:38:09.328Z,65.70
2023-01-10T21:40:36.403Z,65.60
2023-01-10T21:43:03.520Z,65.40
2023-01-10T21:45:30.764Z,66.00
2023-01-10T21:47:57.777Z,65.40
2023-01-10T21:50:24.873Z,65.60
2023-01-10T21:52:52.173Z,65.80
2023-01-10T21:55:19.310Z,66.10
2023-01-10T21:57:46.297Z,66.40
2023-01-10T22:00:13.686Z,66.60
2023-01-10T22:02:40.950Z,66.70
2023-01-10T22:05:10.196Z,66.90
2023-01-10T22:07:37.938Z,67.30
2023-01-10T22:10:06.939Z,67.20
2023-01-10T22:12:34.448Z,67.30
2023-01-10T22:15:01.517Z,67.40
2023-01-10T22:17:28.580Z,67.40
2023-01-10T22:19:55.639Z,67.40
2023-01-10T22:22:22.595Z,67.50
2023-01-10T22:24:49.593Z,67.60
2023-01-10T22:27:16.862Z,67.80
2023-01-10T22:29:43.950Z,68.10
2023-01-10T22:32:11.285Z,68.40
2023-01-10T22:34:38.288Z,68.40
2023-01-10T22:37:05.343Z,68.10
2023-01-10T22:39:32.387Z,68.00
2023-01-10T22:41:59.449Z,67.80
2023-01-10T22:44:27.116Z,67.60
2023-01-10T22:46:55.579Z,67.40
2023-01-10T22:49:23.271Z,67.50
2023-01-10T22:51:50.754Z,68.10
2023-01-10T22:54:17.958Z,68.60
2023-01-10T22:56:46.422Z,69.00
2023-01-10T22:59:13.907Z,69.50
2023-01-10T23:01:40.961Z,69.80
2023-01-10T23:04:08.277Z,70.00
2023-01-10T23:06:35.416Z,70.30
2023-01-10T23:09:02.705Z,70.40
2023-01-10T23:11:29.777Z,70.50
2023-01-10T23:13:56.761Z,70.80
2023-01-10T23:16:29.772Z,70.70
2023-01-10T23:18:58.218Z,70.50
2023-01-10T23:21:26.454Z,70.50
2023-01-10T23:23:54.426Z,70.50
2023-01-10T23:26:22.549Z,70.70
2023-01-10T23:28:50.955Z,70.90
2023-01-10T23:31:21.944Z,70.80
2023-01-10T23:33:49.990Z,70.80
2023-01-10T23:36:17.734Z,70.70
2023-01-10T23:38:45.090Z,70.60
2023-01-10T23:41:12.301Z,70.60
2023-01-10T23:43:39.273Z,70.30
2023-01-10T23:46:06.922Z,70.00
2023-01-10T23:48:34.228Z,69.90
2023-01-10T23:51:01.241Z,69.70
2023-01-10T23:53:28.348Z,69.50
2023-01-10T23:55:55.339Z,69.60
2023-01-10T23:58:22.334Z,69.60
